Latest Weather Observations for Tibooburra Airport

IDN60801

Issued at 11:35 pm EST Friday 1 August 2014 (issued every 30 minutes, with the page automatically refreshed every 10 minutes)

About weather observations | Map of weather stations | Latest weather observations for NSW | Other Formats
Station Details ID: 046126 Name: TIBOOBURRA AIRPORT Lat: -29.44 Lon: 142.06 Height: 176.4 m
Data from the previous 72 hours. | See also: Recent months for locations in New South Wales
Date/Time
EST
Temp
°C
App
Temp
°C
Dew
Point
Rel
Hum
%
Delta-T
°C
Wind Press
QNH
hPa
Press
MSL
hPa
Rain
since 9 am
mm
Dir
 
Spd
km/h
Gust
km/h
Spd
kts
Gust
kts
01/11:30pm 7.1 2.1 -4.0 45 3.9 SW 13 15 7 8 1026.8 - 0.0
01/11:00pm 8.0 2.7 -3.8 43 4.2 SSW 15 17 8 9 1026.6 1026.6 0.0
01/10:30pm 9.1 3.8 -3.4 41 4.6 SSW 15 17 8 9 1026.4 - 0.0
01/10:00pm 8.6 3.3 -3.6 42 4.4 WSW 15 17 8 9 1025.9 1025.8 0.0
01/09:30pm 8.8 3.5 -3.7 41 4.6 WSW 15 17 8 9 1025.7 - 0.0
01/09:00pm 9.1 4.1 -4.1 39 4.8 WSW 13 15 7 8 1025.3 1025.2 0.0
01/08:30pm 9.6 4.6 -4.0 38 5.0 WSW 13 15 7 8 1024.9 - 0.0
01/08:00pm 10.5 5.2 -3.6 37 5.3 SW 15 17 8 9 1024.6 1024.5 0.0
01/07:30pm 11.4 6.5 -3.5 35 5.7 SSW 13 17 7 9 1024.2 - 0.0
01/07:00pm 12.4 6.4 -3.4 33 6.1 SSW 19 22 10 12 1023.7 1023.6 0.0
01/06:30pm 13.1 5.8 -3.2 32 6.4 SSW 26 35 14 19 1023.3 - 0.0
01/06:00pm 13.6 6.7 -2.3 33 6.3 SSW 24 32 13 17 1022.8 1022.7 0.0
01/05:30pm 14.4 6.7 -2.9 30 6.9 SSW 28 35 15 19 1022.5 - 0.0
01/05:00pm 14.9 6.5 -2.5 30 7.0 SSW 32 44 17 24 1021.9 1021.9 0.0
01/04:30pm 15.3 8.0 -3.1 28 7.4 SSW 26 37 14 20 1021.6 - 0.0
01/04:00pm 15.4 7.4 -2.5 29 7.2 SSW 30 43 16 23 1021.4 1021.4 0.0
01/03:30pm 15.6 7.9 -2.8 28 7.4 SSW 28 43 15 23 1021.3 - 0.0
01/03:03pm 15.7 5.8 -3.7 26 7.7 SW 39 50 21 27 1021.0 - 0.0
01/03:00pm 16.0 8.7 -3.0 27 7.6 SSW 26 33 14 18 1021.0 1020.9 0.0
01/02:30pm 15.4 6.9 -3.0 28 7.4 SW 32 50 17 27 1020.9 - 0.0
01/02:29pm 15.8 7.4 -2.6 28 7.5 SW 32 50 17 27 1020.9 - 0.0
01/02:00pm 15.5 7.1 -2.4 29 7.3 SW 32 43 17 23 1020.9 1020.8 0.0
01/01:30pm 14.9 5.6 -2.1 31 6.9 SW 37 56 20 30 1020.9 - 0.0
01/01:24pm 15.2 6.7 -1.8 31 7.0 SW 33 54 18 29 1020.9 - 0.0
01/01:00pm 14.8 5.9 -2.1 31 6.8 SW 35 48 19 26 1021.1 1021.0 0.0
01/12:30pm 14.6 5.8 -1.5 33 6.6 SW 35 44 19 24 1021.3 - 0.0
01/12:00pm 14.7 5.1 -1.4 33 6.6 SW 39 50 21 27 1021.5 1021.5 0.0
01/11:30am 14.0 4.4 -1.6 34 6.4 SSW 39 50 21 27 1021.5 - 0.0
01/11:00am 13.4 4.2 -1.7 35 6.1 SW 37 48 20 26 1021.3 1021.3 0.0
01/10:30am 13.3 4.9 -1.1 37 5.9 SW 33 43 18 23 1021.0 - 0.0
01/10:00am 12.6 4.3 -1.7 37 5.7 SW 32 41 17 22 1020.8 1020.7 0.0
01/09:30am 11.8 3.5 -2.0 38 5.5 SSW 32 39 17 21 1020.5 - 0.0
01/09:00am 11.0 2.6 -0.8 44 4.7 SSW 33 43 18 23 1020.2 1020.3 0.0
01/08:30am 10.4 4.7 0.7 51 4.0 SW 20 26 11 14 1019.7 - 0.0
01/08:00am 9.5 4.7 0.4 53 3.7 SW 15 20 8 11 1019.1 1019.2 0.0
01/07:30am 9.0 4.6 0.5 55 3.5 SW 13 15 7 8 1018.6 - 0.0
01/07:00am 9.5 4.0 0.4 53 3.7 SSW 19 24 10 13 1018.0 1018.0 0.0
01/06:30am 10.0 4.1 1.4 55 3.6 SSW 22 28 12 15 1017.6 - 0.0
01/06:00am 10.3 4.5 2.2 57 3.5 SSW 22 30 12 16 1017.2 1017.2 0.0
01/05:30am 10.7 3.5 3.0 59 3.4 SSW 30 39 16 21 1016.7 - 0.0
01/05:00am 11.0 4.8 4.2 63 3.1 SSW 26 32 14 17 1016.1 1016.2 0.0
01/04:30am 11.6 6.3 4.8 63 3.1 S 22 30 12 16 1015.7 - 0.0
01/04:00am 12.2 6.7 3.9 57 3.8 SSW 22 30 12 16 1015.2 1015.3 0.0
01/03:30am 12.5 6.0 2.7 51 4.3 SW 26 32 14 17 1014.7 - 0.0
01/03:00am 13.7 6.3 -0.7 37 6.0 SW 28 35 15 19 1014.5 1014.6 0.0
01/02:30am 13.7 7.2 -2.7 32 6.5 WSW 22 26 12 14 1014.0 - 0.0
01/02:00am 13.8 8.2 -3.0 31 6.6 W 17 20 9 11 1013.6 1013.7 0.0
01/01:30am 14.4 8.2 -3.4 29 7.0 W 20 28 11 15 1013.6 - 0.0
01/01:00am 15.6 8.2 -3.3 27 7.5 W 26 33 14 18 1013.3 1013.3 0.0
01/12:30am 17.6 9.1 -3.2 24 8.5 WNW 32 41 17 22 1013.0 - 0.0
01/12:00am 18.4 10.7 -3.1 23 8.9 WNW 28 35 15 19 1012.8 1012.8 0.0
 
Date/Time
EST
Temp
°C
App
Temp
°C
Dew
Point
Rel
Hum
%
Delta-T
°C
Wind Press
QNH
hPa
Press
MSL
hPa
Rain
since 9 am
mm
Dir
 
Spd
km/h
Gust
km/h
Spd
kts
Gust
kts
31/11:30pm 18.6 10.9 -2.9 23 8.9 WNW 28 33 15 18 1013.1 - 0.0
31/11:00pm 19.0 11.3 -2.6 23 9.1 WNW 28 35 15 19 1013.1 1013.1 0.0
31/10:30pm 19.3 11.3 -2.3 23 9.1 WNW 30 39 16 21 1013.1 - 0.0
31/10:00pm 19.3 12.1 -1.7 24 9.0 WNW 26 33 14 18 1013.0 1013.0 0.0
31/09:30pm 18.2 12.2 -1.6 26 8.4 NW 20 26 11 14 1012.9 - 0.0
31/09:00pm 18.0 12.0 -1.8 26 8.4 NW 20 26 11 14 1012.8 1012.8 0.0
31/08:30pm 18.4 12.3 -2.0 25 8.6 NW 20 24 11 13 1012.7 - 0.0
31/08:00pm 19.4 13.6 -1.7 24 9.0 NW 19 24 10 13 1012.5 1012.5 0.0
31/07:30pm 20.0 14.2 -1.7 23 9.3 NW 19 22 10 12 1012.5 - 0.0
31/07:00pm 20.4 14.5 -2.0 22 9.6 WNW 19 22 10 12 1012.6 1012.6 0.0
31/06:30pm 21.2 15.1 -2.0 21 10.0 WNW 20 24 11 13 1012.5 - 0.0
31/06:00pm 22.2 15.8 -1.8 20 10.5 WNW 22 30 12 16 1012.5 1012.5 0.0
31/05:30pm 23.5 14.9 -2.2 18 11.3 WNW 33 43 18 23 1012.4 - 0.0
31/05:00pm 24.0 15.6 -2.5 17 11.6 WNW 32 43 17 23 1012.5 1012.5 0.0
31/04:30pm 24.4 16.0 -2.2 17 11.8 WNW 32 46 17 25 1012.4 - 0.0
31/04:00pm 24.7 17.1 -2.0 17 11.9 WNW 28 41 15 22 1012.5 1012.5 0.0
31/03:30pm 24.7 16.9 -3.6 15 12.2 WNW 28 41 15 22 1012.8 - 0.0
31/03:00pm 24.8 16.4 -2.7 16 12.1 WNW 32 44 17 24 1013.1 1013.1 0.0
31/02:30pm 24.7 16.3 -2.8 16 12.1 WNW 32 43 17 23 1013.5 - 0.0
31/02:00pm 24.5 16.3 -3.8 15 12.2 NW 30 39 16 21 1013.9 1014.0 0.0
31/01:30pm 24.4 15.9 -3.0 16 12.0 NW 32 46 17 25 1014.4 - 0.0
31/01:00pm 23.5 15.0 -2.9 17 11.4 WNW 32 43 17 23 1015.2 1015.3 0.0
31/12:30pm 23.3 14.8 -3.1 17 11.4 WNW 32 41 17 22 1015.8 - 0.0
31/12:00pm 22.6 13.6 -2.9 18 11.0 NW 35 44 19 24 1016.6 1016.6 0.0
31/11:30am 22.3 13.3 -3.1 18 10.9 NW 35 43 19 23 1017.2 - 0.0
31/11:00am 21.9 14.9 -0.8 22 10.1 NW 26 37 14 20 1017.6 1017.6 0.0
31/10:30am 20.3 14.1 -0.3 25 9.2 NW 22 30 12 16 1017.9 - 0.0
31/10:00am 20.0 14.3 0.5 27 8.8 WNW 20 26 11 14 1018.0 1018.0 0.0
31/09:30am 18.7 12.9 -0.2 28 8.3 NW 20 26 11 14 1018.1 - 0.0
31/09:00am 17.5 12.3 -0.2 30 7.7 WNW 17 22 9 12 1018.0 1018.0 0.0
31/08:30am 15.2 10.3 -0.5 34 6.6 WNW 15 17 8 9 1018.0 - 0.0
31/08:00am 13.4 8.0 -1.3 36 6.0 WNW 17 19 9 10 1018.0 1018.0 0.0
31/07:30am 11.9 6.1 -1.6 39 5.4 NW 19 20 10 11 1017.8 - 0.0
31/07:00am 11.5 5.7 -1.6 40 5.2 NW 19 20 10 11 1017.8 1017.8 0.0
31/06:30am 10.9 5.4 -1.8 41 5.0 NW 17 17 9 9 1017.5 - 0.0
31/06:00am 11.2 5.7 -1.9 40 5.1 NW 17 19 9 10 1017.5 1017.5 0.0
31/05:30am 10.8 5.3 -1.9 41 5.0 NW 17 17 9 9 1017.5 - 0.0
31/05:00am 11.3 6.1 -2.5 38 5.3 NW 15 17 8 9 1017.6 1017.6 0.0
31/04:30am 10.0 5.1 -3.3 39 5.0 NNW 13 15 7 8 1017.7 - 0.0
31/04:00am 13.1 8.0 -2.0 35 6.0 WNW 15 17 8 9 1017.8 1017.8 0.0
31/03:30am 12.8 7.4 -1.5 37 5.8 WNW 17 19 9 10 1018.2 - 0.0
31/03:00am 12.0 7.3 -1.5 39 5.4 WNW 13 15 7 8 1018.4 1018.5 0.0
31/02:30am 9.6 5.8 -3.7 39 4.9 W 7 9 4 5 1018.6 - 0.0
31/02:00am 13.2 8.5 -1.9 35 6.0 WNW 13 13 7 7 1018.6 1018.7 0.0
31/01:30am 13.6 8.5 -1.9 34 6.3 WNW 15 17 8 9 1018.7 - 0.0
31/01:00am 14.7 8.9 -1.4 33 6.6 WNW 19 19 10 10 1018.9 1019.0 0.0
31/12:30am 14.4 9.0 -1.6 33 6.5 WNW 17 19 9 10 1018.9 - 0.0
31/12:00am 14.6 9.1 -1.9 32 6.7 WNW 17 19 9 10 1019.1 1019.2 0.0
 
Date/Time
EST
Temp
°C
App
Temp
°C
Dew
Point
Rel
Hum
%
Delta-T
°C
Wind Press
QNH
hPa
Press
MSL
hPa
Rain
since 9 am
mm
Dir
 
Spd
km/h
Gust
km/h
Spd
kts
Gust
kts
30/11:30pm 14.4 8.9 -2.1 32 6.7 WNW 17 17 9 9 1019.2 - 0.0
30/11:00pm 15.2 10.1 -1.8 31 7.0 WNW 15 17 8 9 1019.3 1019.4 0.0
30/10:30pm 15.6 10.1 -1.9 30 7.2 WNW 17 17 9 9 1019.4 - 0.0
30/10:00pm 15.8 10.7 -1.7 30 7.2 WNW 15 17 8 9 1019.4 1019.5 0.0
30/09:30pm 16.1 11.0 -1.9 29 7.4 WNW 15 17 8 9 1019.6 - 0.0
30/09:00pm 16.6 11.6 -1.5 29 7.6 WNW 15 17 8 9 1019.8 1019.9 0.0
30/08:30pm 16.5 11.8 -1.6 29 7.6 WNW 13 13 7 7 1019.8 - 0.0
30/08:00pm 17.3 12.7 -1.4 28 7.9 WNW 13 15 7 8 1019.8 1019.9 0.0
30/07:30pm 18.0 13.4 -1.3 27 8.2 NW 13 15 7 8 1019.8 - 0.0
30/07:00pm 18.4 14.1 -1.4 26 8.4 WNW 11 13 6 7 1019.8 1019.9 0.0
30/06:30pm 19.1 15.2 -1.4 25 8.8 W 9 11 5 6 1019.7 - 0.0
30/06:00pm 20.8 16.5 -1.7 22 9.7 W 11 13 6 7 1019.5 1019.6 0.0
30/05:30pm 22.8 17.8 -1.3 20 10.7 WNW 15 20 8 11 1019.4 - 0.0
30/05:00pm 23.4 18.4 -1.5 19 11.1 W 15 20 8 11 1019.3 1019.4 0.0
30/04:30pm 23.6 18.2 -1.3 19 11.2 W 17 24 9 13 1019.2 - 0.0
30/04:00pm 24.1 18.4 -0.9 19 11.3 NW 19 24 10 13 1019.2 1019.3 0.0
30/03:30pm 24.0 18.5 -1.8 18 11.5 W 17 24 9 13 1019.2 - 0.0
30/03:00pm 24.3 19.4 -0.8 19 11.4 W 15 22 8 12 1019.5 1019.6 0.0
30/02:30pm 23.9 19.4 -0.4 20 11.1 NW 13 24 7 13 1019.8 - 0.0
30/02:00pm 23.3 18.4 -0.2 21 10.7 WNW 15 24 8 13 1020.1 1020.2 0.0
30/01:30pm 23.3 18.9 0.4 22 10.6 W 13 24 7 13 1020.7 - 0.0
30/01:00pm 23.4 19.0 0.5 22 10.6 WSW 13 19 7 10 1021.3 1021.4 0.0
30/12:30pm 22.4 16.8 -0.3 22 10.3 W 19 32 10 17 1021.9 - 0.0
30/12:00pm 22.4 18.5 1.4 25 9.8 N 11 17 6 9 1022.6 1022.6 0.0
30/11:30am 21.2 18.2 1.0 26 9.3 SSW 6 9 3 5 1023.1 - 0.0
30/11:00am 21.2 19.4 1.5 27 9.1 CALM 0 6 0 3 1023.5 1023.6 0.0
30/10:30am 20.6 17.7 1.5 28 8.8 E 6 9 3 5 1023.8 - 0.0
30/10:00am 18.9 15.8 1.4 31 7.9 ESE 7 9 4 5 1024.0 1024.1 0.0
30/09:30am 17.3 15.5 1.3 34 7.2 CALM 0 0 0 0 1023.9 - 0.0
30/09:00am 15.5 13.7 0.9 37 6.3 CALM 0 0 0 0 1023.7 1023.8 0.0
30/08:30am 14.2 12.3 0.8 40 5.8 CALM 0 0 0 0 1023.5 - 0.0
30/08:00am 12.7 10.9 1.4 46 4.8 CALM 0 0 0 0 1023.4 1023.5 0.0
30/07:30am 10.7 7.4 0.4 49 4.3 W 7 9 4 5 1023.3 - 0.0
30/07:00am 10.1 6.3 -0.7 47 4.3 SW 9 13 5 7 1023.1 1023.2 0.0
30/06:30am 9.5 4.9 -1.2 47 4.2 WSW 13 15 7 8 1022.9 - 0.0
30/06:00am 9.5 4.8 -1.8 45 4.4 WSW 13 13 7 7 1022.8 1022.8 0.0
30/05:30am 9.5 4.8 -1.8 45 4.4 WSW 13 15 7 8 1022.5 - 0.0
30/05:00am 10.2 5.9 -1.8 43 4.7 WSW 11 13 6 7 1021.9 1022.0 0.0
30/04:30am 10.3 6.3 -2.0 42 4.8 WSW 9 11 5 6 1021.8 - 0.0
30/04:00am 11.2 6.1 -1.9 40 5.1 WSW 15 17 8 9 1021.7 1021.8 0.0
30/03:30am 11.3 6.1 -2.5 38 5.4 W 15 15 8 8 1021.8 - 0.0
30/03:00am 11.7 6.5 -2.5 37 5.5 W 15 17 8 9 1021.9 1022.0 0.0
30/02:30am 12.9 7.4 -2.2 35 6.0 W 17 17 9 9 1022.2 - 0.0
30/02:00am 14.8 8.9 -2.1 31 6.8 WNW 19 19 10 10 1022.2 1022.2 0.0
30/01:30am 14.1 8.1 -2.8 31 6.7 WNW 19 20 10 11 1022.4 - 0.0
30/01:00am 13.7 8.5 -2.7 32 6.5 W 15 15 8 8 1022.3 1022.3 0.0
30/12:30am 14.5 9.0 -2.4 31 6.8 WNW 17 17 9 9 1022.3 - 0.0
30/12:00am 14.5 9.3 -2.4 31 6.8 WNW 15 17 8 9 1022.3 1022.3 0.0

Other Formats:

Comma delimited format used in spreadsheet applications
http://www.bom.gov.au/fwo/IDN60801/IDN60801.95485.axf

JavaScript Object Notation format (JSON) in row-major order
http://www.bom.gov.au/fwo/IDN60801/IDN60801.95485.json